Time;durP1;ratioP1;P1;durP2;ratioP2;P2;SDS_P1;SDS_P2;PMS_P1;PMS_P2;Temp;Humidity;BMP_temperature;BMP_pressure;BME280_temperature;BME280_humidity;BME280_pressure;Samples;Min_cycle;Max_cycle;Signal;HPM_P1;HPM_P2
2022/05/23 00:03:32;;;;;;;8.97;5.70;;;9.90;99.90;;;;;;10506715;28;20031;-89
2022/05/23 00:08:33;;;;;;;8.03;5.30;;;10.00;99.90;;;;;;10506870;28;20036;-89
2022/05/23 00:13:34;;;;;;;7.33;5.07;;;10.20;99.90;;;;;;10504366;28;20510;-87
2022/05/23 00:18:35;;;;;;;9.40;5.17;;;10.30;99.90;;;;;;10520841;28;20528;-87
2022/05/23 00:23:36;;;;;;;7.93;5.28;;;10.30;99.90;;;;;;10530332;28;20038;-87
2022/05/23 00:28:38;;;;;;;10.00;5.60;;;10.40;99.90;;;;;;10529948;28;20036;-88
2022/05/23 00:38:58;;;;;;;8.37;5.80;;;10.20;99.90;;;;;;10532065;28;20079;-86
2022/05/23 00:44:02;;;;;;;9.13;5.90;;;10.20;99.90;;;;;;10531977;28;20113;-88
2022/05/23 00:49:05;;;;;;;10.53;6.63;;;10.10;99.90;;;;;;10526391;28;20031;-87
2022/05/23 00:54:06;;;;;;;12.53;6.33;;;10.00;99.90;;;;;;10533220;28;20031;-87
2022/05/23 00:59:08;;;;;;;13.67;7.83;;;10.00;99.90;;;;;;10529125;28;20039;-87
2022/05/23 01:04:08;;;;;;;13.00;8.00;;;9.90;99.90;;;;;;10528707;28;20119;-89
2022/05/23 01:09:10;;;;;;;11.83;7.60;;;9.90;99.90;;;;;;10528966;28;20035;-87
2022/05/23 01:14:11;;;;;;;14.57;9.43;;;9.90;99.90;;;;;;10528583;28;20032;-87
2022/05/23 01:19:12;;;;;;;15.43;9.27;;;9.80;99.90;;;;;;10529370;28;20035;-87
2022/05/23 01:24:19;;;;;;;16.97;9.30;;;9.80;99.90;;;;;;10529378;28;20115;-89
2022/05/23 01:29:20;;;;;;;13.53;9.13;;;9.70;99.90;;;;;;10528610;28;20036;-87
2022/05/23 01:34:21;;;;;;;14.50;9.17;;;9.60;99.90;;;;;;10527913;28;20032;-87
2022/05/23 01:39:21;;;;;;;17.43;9.10;;;9.50;99.90;;;;;;10528996;28;20032;-88
2022/05/23 01:44:22;;;;;;;16.07;9.33;;;9.40;99.90;;;;;;10527463;28;20546;-87
2022/05/23 01:49:23;;;;;;;15.47;10.10;;;9.40;99.90;;;;;;10521279;28;20411;-87
2022/05/23 01:54:24;;;;;;;15.63;10.63;;;9.30;99.90;;;;;;10511277;28;20036;-87
2022/05/23 02:04:45;;;;;;;17.20;10.83;;;9.10;99.90;;;;;;10528947;28;20036;-87
2022/05/23 02:09:46;;;;;;;18.47;12.37;;;9.00;99.90;;;;;;10526982;28;20044;-87
2022/05/23 02:14:48;;;;;;;24.87;13.87;;;9.00;99.90;;;;;;10533853;28;20032;-88
2022/05/23 02:19:49;;;;;;;19.43;12.47;;;8.80;99.90;;;;;;10535789;28;20073;-86
2022/05/23 02:24:50;;;;;;;15.90;10.73;;;8.80;99.90;;;;;;10535720;28;20081;-87
2022/05/23 02:29:50;;;;;;;22.33;12.87;;;8.70;99.90;;;;;;10535300;28;20032;-87
2022/05/23 02:34:51;;;;;;;19.93;12.23;;;8.70;99.90;;;;;;10534540;28;20024;-88
2022/05/23 02:39:52;;;;;;;24.20;14.00;;;8.60;99.90;;;;;;10535342;28;20073;-88
2022/05/23 02:44:52;;;;;;;19.93;12.10;;;8.50;99.90;;;;;;10534527;28;20075;-87
2022/05/23 02:49:53;;;;;;;20.13;12.30;;;8.40;99.90;;;;;;10533698;28;20055;-87
2022/05/23 02:54:54;;;;;;;18.97;12.43;;;8.30;99.90;;;;;;10534383;28;20120;-87
2022/05/23 02:59:54;;;;;;;23.50;12.53;;;8.30;99.90;;;;;;10533790;28;20097;-87
2022/05/23 03:04:55;;;;;;;20.57;13.37;;;8.10;99.90;;;;;;10533891;28;20024;-85
2022/05/23 03:09:55;;;;;;;17.03;11.07;;;8.00;99.90;;;;;;10533515;28;20085;-84
2022/05/23 03:14:56;;;;;;;17.07;11.30;;;7.90;99.90;;;;;;10534619;28;20485;-86
2022/05/23 03:19:57;;;;;;;24.10;12.40;;;7.60;99.90;;;;;;10535522;28;20028;-82
2022/05/23 03:30:17;;;;;;;17.73;11.10;;;7.20;99.90;;;;;;10534027;28;20044;-84
2022/05/23 03:35:18;;;;;;;17.30;10.87;;;7.10;99.90;;;;;;10533045;28;20028;-85
2022/05/23 03:40:19;;;;;;;17.37;10.70;;;7.00;99.90;;;;;;10533190;28;20401;-85
2022/05/23 03:45:20;;;;;;;18.40;11.80;;;7.10;99.90;;;;;;10533280;28;20028;-85
2022/05/23 03:50:23;;;;;;;21.53;13.77;;;7.10;99.90;;;;;;10533145;28;20523;-85
2022/05/23 03:55:24;;;;;;;20.80;12.30;;;7.20;99.90;;;;;;10533002;28;20024;-86
2022/05/23 04:00:24;;;;;;;16.80;11.23;;;7.10;99.90;;;;;;10529499;28;20577;-85
2022/05/23 04:05:25;;;;;;;24.57;13.10;;;7.20;99.90;;;;;;10523067;28;20127;-84
2022/05/23 04:10:26;;;;;;;19.53;13.13;;;7.30;99.90;;;;;;10526781;28;20040;-87
2022/05/23 04:15:27;;;;;;;21.53;13.50;;;7.30;99.90;;;;;;10529057;28;20032;-84
2022/05/23 04:20:27;;;;;;;17.30;11.27;;;7.50;99.90;;;;;;10531053;28;20511;-86
2022/05/23 04:25:28;;;;;;;20.67;13.13;;;7.60;99.90;;;;;;10529326;28;20024;-85
2022/05/23 04:30:29;;;;;;;21.03;12.57;;;7.90;99.90;;;;;;10520415;28;20085;-82
2022/05/23 04:35:30;;;;;;;16.27;11.03;;;8.10;99.90;;;;;;10529399;28;20035;-83
2022/05/23 04:40:30;;;;;;;16.30;11.53;;;8.30;99.90;;;;;;10530854;28;20430;-82
2022/05/23 04:45:31;;;;;;;16.30;9.63;;;8.50;99.90;;;;;;10530965;28;20032;-84
2022/05/23 04:50:33;;;;;;;17.97;9.50;;;8.70;99.90;;;;;;10516107;28;20408;-83
2022/05/23 04:55:35;;;;;;;12.17;8.50;;;8.80;99.90;;;;;;10490180;28;20150;-86
2022/05/23 05:00:39;;;;;;;12.17;8.37;;;9.10;99.90;;;;;;10487861;28;20024;-83
2022/05/23 05:05:39;;;;;;;11.27;7.53;;;9.20;99.90;;;;;;10490335;28;20024;-85
2022/05/23 05:10:40;;;;;;;11.40;7.40;;;9.40;99.90;;;;;;10487921;28;20032;-85
2022/05/23 05:15:41;;;;;;;14.70;7.80;;;9.70;99.90;;;;;;10489719;28;20032;-83
2022/05/23 05:20:41;;;;;;;10.97;6.93;;;9.80;99.90;;;;;;10488682;28;20025;-85
2022/05/23 05:25:42;;;;;;;9.73;6.13;;;10.00;99.90;;;;;;10489739;28;20021;-85
2022/05/23 05:30:51;;;;;;;10.93;6.43;;;10.20;99.90;;;;;;10488849;28;20025;-83
2022/05/23 05:36:01;;;;;;;10.20;5.93;;;10.40;99.90;;;;;;10487427;28;20028;-85
2022/05/23 05:41:14;;;;;;;8.55;6.05;;;10.60;99.90;;;;;;10488550;28;20028;-83
2022/05/23 05:46:20;;;;;;;8.05;4.30;;;10.80;99.90;;;;;;10486470;28;20020;-83
2022/05/23 05:51:22;;;;;;;;;;;11.10;99.90;;;;;;10488995;28;20495;-83
2022/05/23 05:56:23;;;;;;;5.93;3.53;;;11.30;99.90;;;;;;10487791;28;19935;-83
2022/05/23 06:01:24;;;;;;;7.90;3.65;;;11.50;99.90;;;;;;10488412;28;20078;-83
2022/05/23 06:11:44;;;;;;;6.05;4.18;;;12.00;99.90;;;;;;10487649;28;20080;-83
2022/05/23 06:16:45;;;;;;;8.30;3.70;;;12.10;99.90;;;;;;10487934;28;20051;-84
2022/05/23 06:21:46;;;;;;;6.53;3.83;;;12.30;99.90;;;;;;10487041;28;20028;-84
2022/05/23 06:26:46;;;;;;;5.18;3.08;;;12.60;99.90;;;;;;10517264;28;20467;-83
2022/05/23 06:31:47;;;;;;;4.43;2.42;;;12.80;99.90;;;;;;10525796;28;20024;-84
2022/05/23 06:36:48;;;;;;;4.00;2.55;;;12.90;99.90;;;;;;10503904;28;20076;-84
2022/05/23 06:41:49;;;;;;;4.57;2.67;;;13.10;99.10;;;;;;10511018;28;20020;-88
2022/05/23 06:46:50;;;;;;;3.03;2.00;;;13.40;95.80;;;;;;10508509;28;20024;-83
2022/05/23 06:51:52;;;;;;;2.55;1.90;;;13.70;92.10;;;;;;10524572;28;20055;-88
2022/05/23 06:56:52;;;;;;;2.58;1.83;;;14.30;88.90;;;;;;10515388;28;20490;-85
2022/05/23 07:01:53;;;;;;;2.42;1.90;;;16.00;83.00;;;;;;10513472;28;20018;-84
2022/05/23 07:12:26;;;;;;;3.42;1.88;;;19.10;72.90;;;;;;10510704;28;20574;-84
2022/05/23 07:17:29;;;;;;;1.92;1.73;;;19.50;66.20;;;;;;10509470;28;20019;-84
2022/05/23 07:22:30;;;;;;;2.92;1.55;;;19.50;62.60;;;;;;10512962;28;20028;-86
2022/05/23 07:27:30;;;;;;;1.77;1.30;;;19.60;62.40;;;;;;10522427;28;20026;-86
2022/05/23 07:32:31;;;;;;;1.60;1.27;;;20.10;61.10;;;;;;10523085;28;20151;-86
2022/05/23 07:37:32;;;;;;;2.92;1.35;;;20.10;60.90;;;;;;10519385;28;20025;-85
2022/05/23 07:42:32;;;;;;;5.40;1.80;;;20.00;57.20;;;;;;10527538;28;20055;-84
2022/05/23 07:47:34;;;;;;;1.65;1.50;;;19.50;58.90;;;;;;10523241;28;20066;-84
2022/05/23 07:52:35;;;;;;;2.97;1.73;;;19.00;59.70;;;;;;10518435;28;20059;-84
2022/05/23 08:02:55;;;;;;;2.78;1.50;;;18.50;55.50;;;;;;10512425;28;20039;-85
2022/05/23 08:07:56;;;;;;;2.97;1.83;;;18.60;59.30;;;;;;10526836;28;20032;-87
2022/05/23 08:12:58;;;;;;;2.47;1.65;;;18.50;57.60;;;;;;10535990;28;20043;-85
2022/05/23 08:17:59;;;;;;;1.67;1.30;;;18.20;57.30;;;;;;10513390;28;20506;-85
2022/05/23 08:23:00;;;;;;;2.47;1.25;;;18.20;58.10;;;;;;10530680;28;20107;-84
2022/05/23 08:28:00;;;;;;;1.52;1.30;;;18.30;53.50;;;;;;10506864;28;20033;-85
2022/05/23 08:33:01;;;;;;;2.15;1.30;;;18.30;57.00;;;;;;10517060;28;20115;-85
2022/05/23 08:38:02;;;;;;;2.28;1.38;;;18.50;57.20;;;;;;10518629;28;20507;-85
2022/05/23 08:43:05;;;;;;;3.78;1.63;;;18.80;59.70;;;;;;10529412;28;20051;-84
2022/05/23 08:48:23;;;;;;;2.47;1.40;;;19.30;57.30;;;;;;10514379;28;20028;-86
2022/05/23 08:53:43;;;;;;;2.72;1.35;;;19.40;57.60;;;;;;10528690;28;20052;-85
2022/05/23 08:58:54;;;;;;;3.03;1.90;;;19.60;56.90;;;;;;10525494;28;20033;-85
2022/05/23 09:04:06;;;;;;;2.28;1.65;;;19.40;56.40;;;;;;10522024;28;20059;-84
2022/05/23 09:09:10;;;;;;;2.72;1.77;;;19.50;59.40;;;;;;10517518;28;20028;-83
2022/05/23 09:14:14;;;;;;;2.85;1.55;;;19.60;57.60;;;;;;10522788;28;20767;-84
2022/05/23 09:19:26;;;;;;;2.95;1.40;;;19.60;58.30;;;;;;10529085;28;20111;-84
2022/05/23 09:24:38;;;;;;;2.95;1.40;;;20.30;57.20;;;;;;10530715;28;20059;-85
2022/05/23 09:29:39;;;;;;;2.03;1.50;;;20.30;54.40;;;;;;10529937;28;20467;-84
2022/05/23 09:34:57;;;;;;;3.70;1.70;;;20.70;54.30;;;;;;10529395;28;20035;-83
2022/05/23 09:39:59;;;;;;;2.08;1.38;;;20.70;54.50;;;;;;10528458;28;20032;-84
2022/05/23 09:50:25;;;;;;;2.47;1.65;;;20.90;54.20;;;;;;10529491;28;20060;-85
2022/05/23 09:55:35;;;;;;;2.92;1.58;;;21.20;53.00;;;;;;10527945;28;20039;-85
2022/05/23 10:00:38;;;;;;;1.55;1.25;;;21.70;54.50;;;;;;10510223;28;20032;-84
2022/05/23 10:05:42;;;;;;;2.97;1.38;;;21.80;53.00;;;;;;10526297;28;20031;-85
2022/05/23 10:10:57;;;;;;;1.83;1.40;;;21.80;51.80;;;;;;10517934;28;20067;-85
2022/05/23 10:16:00;;;;;;;2.65;1.25;;;21.60;54.20;;;;;;10512573;28;20035;-85
2022/05/23 10:21:18;;;;;;;1.25;1.15;;;21.60;54.10;;;;;;10512516;28;20508;-89
2022/05/23 10:26:23;;;;;;;1.85;1.10;;;21.90;51.00;;;;;;10509613;28;20088;-87
2022/05/23 10:31:29;;;;;;;;;;;22.20;51.90;;;;;;10526533;28;20059;-86
2022/05/23 10:36:31;;;;;;;1.77;1.23;;;22.30;52.20;;;;;;10533947;28;19910;-86
2022/05/23 10:47:14;;;;;;;2.00;1.13;;;23.00;51.70;;;;;;10524288;28;20029;-87
2022/05/23 10:52:32;;;;;;;4.63;1.40;;;23.40;51.00;;;;;;10527177;28;20159;-83
2022/05/23 10:58:08;;;;;;;2.28;1.63;;;22.00;48.10;;;;;;10517676;28;20013;-84
2022/05/23 11:03:28;;;;;;;;;;;21.20;51.50;;;;;;10513717;28;20110;-85
2022/05/23 11:08:45;;;;;;;2.90;1.30;;;21.80;53.50;;;;;;10519968;28;19942;-86
2022/05/23 11:14:16;;;;;;;2.33;1.13;;;22.40;50.10;;;;;;10519892;28;20028;-85
2022/05/23 11:19:52;;;;;;;1.92;1.50;;;22.60;52.70;;;;;;10518732;28;20369;-86
2022/05/23 11:25:32;;;;;;;4.65;1.30;;;23.10;49.50;;;;;;10522637;28;20047;-86
2022/05/23 11:35:55;;;;;;;2.17;1.10;;;23.70;48.20;;;;;;10509785;28;20040;-85
2022/05/23 11:41:39;;;;;;;1.58;1.40;;;22.70;48.10;;;;;;10517489;28;20030;-84
2022/05/23 11:47:07;;;;;;;3.58;1.88;;;22.60;49.30;;;;;;10508822;28;20542;-86
2022/05/23 11:52:23;;;;;;;3.00;2.10;;;23.30;51.40;;;;;;10513548;28;20052;-87
2022/05/23 11:57:35;;;;;;;3.20;1.30;;;23.50;48.80;;;;;;10511613;28;20013;-87
2022/05/23 12:02:38;;;;;;;1.65;1.27;;;23.30;48.90;;;;;;10512912;28;20027;-87
2022/05/23 12:07:43;;;;;;;6.57;3.30;;;23.20;49.40;;;;;;10521126;28;21524;-87
2022/05/23 12:12:47;;;;;;;1.92;1.38;;;23.70;48.90;;;;;;10518315;28;20072;-87
2022/05/23 12:17:59;;;;;;;3.00;1.52;;;23.90;48.60;;;;;;10515072;28;20028;-86
2022/05/23 12:23:27;;;;;;;3.58;1.77;;;23.50;49.50;;;;;;10519623;28;20123;-86
2022/05/23 12:28:28;;;;;;;4.43;1.90;;;23.50;46.70;;;;;;10520326;28;20031;-85
2022/05/23 12:33:29;;;;;;;5.80;2.45;;;22.20;49.40;;;;;;10519932;28;20046;-85
2022/05/23 12:38:52;;;;;;;2.30;1.90;;;21.70;50.20;;;;;;10520049;28;20028;-85
2022/05/23 12:44:30;;;;;;;5.60;2.33;;;21.60;51.80;;;;;;10527089;28;20379;-85
2022/05/23 12:49:41;;;;;;;4.93;2.45;;;21.20;52.00;;;;;;10529987;28;20450;-84
2022/05/23 12:55:34;;;;;;;6.25;2.15;;;20.90;51.70;;;;;;10530757;28;20672;-88
2022/05/23 13:00:39;;;;;;;4.75;2.15;;;21.10;54.80;;;;;;10519890;28;20043;-85
2022/05/23 13:05:45;;;;;;;3.67;1.83;;;21.40;53.70;;;;;;10527389;28;20042;-86
2022/05/23 13:11:05;;;;;;;5.13;2.40;;;21.70;52.40;;;;;;10524528;28;20039;-87
2022/05/23 13:16:17;;;;;;;2.88;1.50;;;21.90;50.40;;;;;;10525045;28;20475;-87
2022/05/23 13:26:37;;;;;;;3.75;1.52;;;21.60;52.80;;;;;;10529093;28;20175;-87
2022/05/23 13:31:38;;;;;;;3.50;1.67;;;21.00;54.80;;;;;;10521974;28;20063;-86
2022/05/23 13:36:43;;;;;;;3.03;1.88;;;20.90;54.70;;;;;;10524919;28;20020;-86
2022/05/23 13:41:45;;;;;;;4.55;2.00;;;20.60;55.80;;;;;;10525616;28;20024;-86
2022/05/23 13:46:47;;;;;;;2.88;1.67;;;20.60;57.20;;;;;;10501359;28;20028;-88
2022/05/23 13:51:53;;;;;;;5.63;2.03;;;20.80;56.90;;;;;;10512733;28;20064;-89
2022/05/23 13:57:16;;;;;;;2.55;1.83;;;21.10;57.50;;;;;;10516069;28;20024;-88
2022/05/23 14:02:22;;;;;;;3.67;1.80;;;20.80;55.00;;;;;;10511492;28;20510;-86
2022/05/23 14:07:25;;;;;;;;;;;20.60;57.40;;;;;;10504129;28;20032;-87
2022/05/23 14:12:31;;;;;;;9.68;2.38;;;20.40;56.00;;;;;;10532820;28;20038;-86
2022/05/23 14:17:35;;;;;;;4.28;1.90;;;20.20;57.90;;;;;;10506329;28;20020;-88
2022/05/23 14:22:36;;;;;;;3.38;1.80;;;20.40;58.20;;;;;;10511879;28;20575;-88
2022/05/23 14:27:52;;;;;;;6.30;2.30;;;20.40;58.50;;;;;;10516278;28;20107;-86
2022/05/23 14:32:55;;;;;;;3.65;1.73;;;20.60;57.70;;;;;;10515519;28;20122;-88
2022/05/23 14:37:56;;;;;;;3.95;2.70;;;20.70;58.20;;;;;;10512897;28;20086;-87
2022/05/23 14:42:57;;;;;;;4.68;2.05;;;20.80;58.10;;;;;;10524354;28;20114;-86
2022/05/23 14:48:15;;;;;;;5.10;1.58;;;20.70;58.00;;;;;;10528683;28;20033;-90
2022/05/23 15:04:34;;;;;;;1.23;1.10;;;20.80;56.40;;;;;;10525483;28;20036;-90
2022/05/23 15:09:35;;;;;;;2.92;1.50;;;20.90;56.90;;;;;;10534122;28;20028;-90
2022/05/23 15:14:36;;;;;;;4.18;1.45;;;20.90;56.70;;;;;;10531359;28;20032;-85
2022/05/23 15:19:37;;;;;;;2.33;1.30;;;20.80;57.20;;;;;;10528394;28;20035;-87
2022/05/23 15:24:38;;;;;;;1.83;1.20;;;20.70;57.60;;;;;;10532841;28;20085;-85
2022/05/23 15:29:38;;;;;;;5.45;1.45;;;20.70;56.70;;;;;;10532434;28;20028;-84
2022/05/23 15:34:39;;;;;;;1.90;1.30;;;20.40;57.40;;;;;;10531364;28;20036;-84
2022/05/23 15:39:40;;;;;;;2.22;1.58;;;20.40;57.70;;;;;;10525004;28;20027;-84
2022/05/23 15:44:41;;;;;;;4.07;2.00;;;20.20;57.60;;;;;;10511078;28;20016;-85
2022/05/23 15:49:41;;;;;;;4.13;3.13;;;20.20;57.30;;;;;;10502284;28;20048;-84
2022/05/23 15:54:42;;;;;;;4.75;2.10;;;20.20;58.40;;;;;;10512303;28;20032;-85
2022/05/23 15:59:43;;;;;;;9.73;2.72;;;20.20;59.60;;;;;;10508912;28;20032;-85
2022/05/23 16:04:45;;;;;;;5.00;1.98;;;20.00;58.50;;;;;;10509715;28;20086;-84
2022/05/23 16:09:45;;;;;;;3.53;1.80;;;19.80;58.90;;;;;;10520083;28;20024;-84
2022/05/23 16:14:46;;;;;;;6.55;2.95;;;19.60;59.60;;;;;;10531997;28;20043;-88
2022/05/23 16:19:47;;;;;;;4.50;1.52;;;19.50;60.30;;;;;;10529741;28;20028;-84
2022/05/23 16:24:48;;;;;;;44.83;36.05;;;19.40;59.80;;;;;;10519347;28;20039;-84
2022/05/23 16:29:48;;;;;;;6.43;5.10;;;19.30;60.00;;;;;;10519673;28;20028;-84
2022/05/23 16:40:09;;;;;;;8.52;4.18;;;18.80;61.00;;;;;;10530914;28;20036;-84
2022/05/23 16:45:10;;;;;;;4.70;2.10;;;18.60;61.80;;;;;;10524828;28;20032;-84
2022/05/23 16:50:11;;;;;;;4.90;2.30;;;18.40;62.20;;;;;;10522867;28;20447;-89
2022/05/23 16:55:13;;;;;;;4.85;1.48;;;18.30;62.70;;;;;;10521548;28;20028;-86
2022/05/23 17:00:14;;;;;;;4.22;1.45;;;18.20;62.50;;;;;;10517665;28;20032;-84
2022/05/23 17:05:15;;;;;;;4.80;1.88;;;18.10;62.90;;;;;;10525332;28;20631;-86
2022/05/23 17:10:15;;;;;;;5.70;2.33;;;17.90;62.90;;;;;;10525843;28;20081;-85
2022/05/23 17:15:17;;;;;;;3.63;1.92;;;17.80;63.80;;;;;;10515761;28;20024;-84
2022/05/23 17:20:18;;;;;;;4.10;1.80;;;17.70;63.50;;;;;;10516348;28;20027;-86
2022/05/23 17:25:19;;;;;;;2.83;1.60;;;17.70;64.10;;;;;;10518110;28;20020;-84
2022/05/23 17:30:21;;;;;;;5.60;2.35;;;17.60;64.80;;;;;;10524026;28;20425;-89
2022/05/23 17:35:21;;;;;;;5.03;3.28;;;17.50;64.50;;;;;;10523801;28;20024;-88
2022/05/23 17:40:22;;;;;;;7.10;3.90;;;17.50;65.80;;;;;;10526653;28;20036;-88
2022/05/23 17:45:26;;;;;;;6.22;3.25;;;17.40;66.30;;;;;;10527654;28;20756;-84
2022/05/23 17:50:27;;;;;;;5.13;2.65;;;17.30;67.80;;;;;;10518306;28;20549;-86
2022/05/23 17:55:30;;;;;;;4.40;2.80;;;17.10;68.40;;;;;;10527592;28;20575;-86
2022/05/23 18:00:31;;;;;;;4.80;2.17;;;16.90;69.40;;;;;;10528926;28;20028;-84
2022/05/23 18:05:32;;;;;;;4.70;2.22;;;16.70;69.90;;;;;;10528787;28;20517;-86
2022/05/23 18:10:34;;;;;;;3.88;2.08;;;16.40;70.50;;;;;;10526189;28;20517;-87
2022/05/23 18:20:57;;;;;;;4.25;2.28;;;15.90;71.60;;;;;;10528356;28;20549;-86
2022/05/23 18:25:58;;;;;;;2.40;2.00;;;15.60;71.90;;;;;;10527718;28;20012;-86
2022/05/23 18:30:58;;;;;;;5.43;2.22;;;15.50;72.30;;;;;;10524867;28;20387;-84
2022/05/23 18:35:59;;;;;;;3.38;2.33;;;15.40;72.80;;;;;;10525985;28;20023;-88
2022/05/23 18:41:00;;;;;;;3.78;2.13;;;15.20;73.30;;;;;;10525946;28;20475;-88
2022/05/23 18:46:00;;;;;;;4.28;1.85;;;15.00;73.50;;;;;;10521593;28;20464;-84
2022/05/23 18:51:03;;;;;;;4.85;2.60;;;14.90;74.30;;;;;;10509550;28;20046;-83
2022/05/23 18:56:06;;;;;;;5.75;2.53;;;14.80;74.50;;;;;;10531202;28;20032;-85
2022/05/23 19:01:09;;;;;;;4.63;2.67;;;14.70;75.40;;;;;;10531797;28;20024;-83
2022/05/23 19:06:10;;;;;;;5.15;3.00;;;14.50;75.80;;;;;;10535309;28;20079;-85
2022/05/23 19:11:11;;;;;;;7.82;4.20;;;14.40;76.30;;;;;;10533134;28;20794;-85
2022/05/23 19:16:12;;;;;;;11.10;5.18;;;14.30;76.60;;;;;;10532409;28;20028;-85
2022/05/23 19:21:14;;;;;;;9.90;3.83;;;14.20;76.80;;;;;;10534090;28;20348;-84
2022/05/23 19:26:15;;;;;;;7.68;4.15;;;14.20;77.40;;;;;;10538769;28;20538;-85
2022/05/23 19:31:16;;;;;;;9.25;4.35;;;14.20;77.40;;;;;;10531302;28;20039;-84
2022/05/23 19:36:17;;;;;;;8.35;3.50;;;14.10;78.10;;;;;;10518237;28;20567;-85
2022/05/23 19:41:24;;;;;;;6.80;3.97;;;14.10;78.60;;;;;;10544621;22;20048;-85
2022/05/23 19:46:25;;;;;;;8.77;4.00;;;14.00;79.30;;;;;;10513027;28;20054;-85
2022/05/23 19:51:27;;;;;;;9.70;4.28;;;13.90;79.50;;;;;;10532697;28;20036;-84
2022/05/23 19:56:28;;;;;;;8.93;4.60;;;13.80;80.00;;;;;;10475910;28;20041;-85
2022/05/23 20:01:29;;;;;;;8.98;4.32;;;13.70;80.80;;;;;;10491346;28;20475;-84
2022/05/23 20:11:49;;;;;;;6.70;3.92;;;13.50;81.90;;;;;;10490643;28;20040;-85
2022/05/23 20:16:53;;;;;;;7.82;4.07;;;13.40;82.60;;;;;;10482119;28;20021;-84
2022/05/23 20:21:53;;;;;;;9.55;5.18;;;13.30;83.70;;;;;;10492579;28;20045;-84
2022/05/23 20:26:54;;;;;;;6.43;4.57;;;13.20;85.10;;;;;;10490642;28;20099;-84
2022/05/23 20:31:54;;;;;;;6.25;4.75;;;13.10;86.60;;;;;;10472642;28;20533;-84
2022/05/23 20:36:55;;;;;;;7.05;4.07;;;13.20;87.50;;;;;;10472132;28;20020;-84
2022/05/23 20:41:56;;;;;;;8.07;4.22;;;13.10;87.90;;;;;;10507788;28;20052;-85
2022/05/23 20:46:56;;;;;;;7.97;4.30;;;13.10;88.60;;;;;;10490089;28;20037;-84
2022/05/23 20:51:57;;;;;;;6.00;4.45;;;13.10;89.10;;;;;;10493787;28;20040;-84
2022/05/23 20:56:58;;;;;;;6.20;4.07;;;13.20;89.60;;;;;;10488821;28;20481;-85
2022/05/23 21:02:07;;;;;;;4.93;3.70;;;13.20;89.60;;;;;;10489349;28;20384;-84
2022/05/23 21:07:09;;;;;;;5.72;3.05;;;13.10;90.00;;;;;;10471153;28;20035;-85
2022/05/23 21:12:11;;;;;;;4.28;2.90;;;13.20;89.10;;;;;;10510705;28;20068;-84
2022/05/23 21:17:18;;;;;;;6.78;3.13;;;13.10;88.60;;;;;;10461409;28;20056;-84
2022/05/23 21:22:22;;;;;;;4.47;3.05;;;13.10;88.50;;;;;;10471325;28;20058;-85
2022/05/23 21:27:23;;;;;;;5.55;3.30;;;13.10;88.30;;;;;;10469647;28;20036;-85
2022/05/23 21:32:24;;;;;;;5.03;2.90;;;12.90;88.70;;;;;;10506554;28;20040;-85
2022/05/23 21:37:24;;;;;;;5.18;3.22;;;12.90;88.40;;;;;;10488748;28;20078;-85
2022/05/23 21:47:44;;;;;;;3.45;2.72;;;12.80;88.20;;;;;;10496745;28;20028;-85
2022/05/23 21:52:45;;;;;;;8.23;3.40;;;12.70;87.90;;;;;;10469885;28;20056;-85
2022/05/23 21:57:45;;;;;;;5.60;2.85;;;12.70;88.70;;;;;;10468836;28;20032;-86
2022/05/23 22:02:46;;;;;;;4.10;2.42;;;12.60;89.00;;;;;;10478311;28;20045;-84
2022/05/23 22:07:46;;;;;;;4.00;2.90;;;12.60;88.80;;;;;;10477400;28;20032;-84
2022/05/23 22:12:47;;;;;;;4.60;2.42;;;12.60;88.00;;;;;;10486701;28;20079;-84
2022/05/23 22:17:47;;;;;;;7.85;3.20;;;12.70;87.80;;;;;;10469902;28;20047;-84
2022/05/23 22:22:48;;;;;;;3.75;2.28;;;12.70;88.00;;;;;;10496534;28;20043;-84
2022/05/23 22:27:49;;;;;;;5.10;2.63;;;12.70;88.30;;;;;;10495330;28;20675;-85
2022/05/23 22:32:49;;;;;;;5.03;2.80;;;12.60;88.50;;;;;;10513093;28;20040;-85
2022/05/23 22:37:50;;;;;;;6.70;3.83;;;12.60;89.20;;;;;;10497778;28;20111;-85
2022/05/23 22:42:50;;;;;;;8.60;3.60;;;12.60;88.70;;;;;;10476813;28;20048;-85
2022/05/23 22:47:51;;;;;;;6.80;3.40;;;12.60;89.70;;;;;;10513807;28;20430;-84
2022/05/23 22:52:52;;;;;;;6.45;3.53;;;12.60;90.00;;;;;;10494701;28;20119;-86
2022/05/23 22:57:53;;;;;;;5.05;2.90;;;12.60;90.50;;;;;;10510218;28;20024;-84
2022/05/23 23:08:12;;;;;;;7.60;3.22;;;12.50;91.00;;;;;;10515282;28;20459;-85
2022/05/23 23:13:13;;;;;;;6.80;3.15;;;12.60;91.00;;;;;;10493617;28;20048;-84
2022/05/23 23:18:14;;;;;;;6.03;3.38;;;12.60;91.20;;;;;;10495695;28;20432;-85
2022/05/23 23:23:15;;;;;;;4.03;2.80;;;12.60;91.20;;;;;;10512130;28;20108;-85
2022/05/23 23:28:15;;;;;;;5.35;3.13;;;12.70;90.70;;;;;;10493410;28;20047;-84
2022/05/23 23:38:35;;;;;;;4.95;2.78;;;12.80;91.00;;;;;;10515398;28;20040;-85
2022/05/23 23:43:36;;;;;;;6.63;2.85;;;12.90;90.60;;;;;;10492382;28;20052;-85
2022/05/23 23:48:36;;;;;;;2.72;2.53;;;13.00;90.90;;;;;;10491311;28;20044;-85
2022/05/23 23:53:37;;;;;;;4.20;2.42;;;12.90;91.10;;;;;;10473971;28;20059;-86
2022/05/23 23:58:38;;;;;;;4.25;2.65;;;13.00;91.10;;;;;;10474251;28;20605;-85
